Portada
METAR-TAF:

METAR-TAF

Aeropuertos :

Aeropuerto Internacional de Singapur

Singapur, Singapur

latitud: 01-22N, longitud: 103-59E, altitud: 5 m

Observación

El informe se hizo hace 17 minutos, a las 19:30 UTC
Viento 2 kt con dirección variable
Temperatura 26°C
Humedad 79%
Presión 1011 hPa
Visibilidad 10 km o más
sin nubes por debajo de 1500 m y sin presencia de cumulonimbus.

METAR: WSSS 181930Z VRB02KT CAVOK 26/22 Q1011 NOSIG

Hora: 03:47 (19:47 UTC)

Pronóstico

El informe se hizo hace 2 horas y 47 minutos, a las 17:00 UTC
Pronóstico válido del 18 a las 18 UTC al 20 a las 00 UTC
Viento 10 kt del norte-noreste
Visibilidad 10 km o más
Nubes dispersas a una altura de 2000 ft
Temporalmente
del 18 a las 22 UTC al 19 a las 01 UTC
Visibilidad: 4500 m
calima

TAF: WSSS 181700Z 1818/2000 03010KT 9999 SCT020 TEMPO 1822/1901 4500 HZ

Observaciones y pronósticos meteorológicos de más de 4000 aeropuertos (mensajes METAR y TAF).

Los puntos amarillos y rojos representan las estaciones disponibles.

Ponga el ratón en el punto deseado para ver el nombre de la estación.

Haga clic para ver las observaciones y los pronósticos meteorológicos.

Para cambiar el mapa : haga clic en los botones verdes con una cruz de color negro para hacer un zoom, en el botón verde con un guión para alejar o en las flechas verdes para mapas adyacentes.


METAR-TAF: